Time;durP1;ratioP1;P1;durP2;ratioP2;P2;SDS_P1;SDS_P2;PMS_P1;PMS_P2;Temp;Humidity;BMP_temperature;BMP_pressure;BME280_temperature;BME280_humidity;BME280_pressure;Samples;Min_cycle;Max_cycle;Signal;HPM_P1;HPM_P2
2023/08/05 00:00:41;;;;;;;9.93;8.43;;;;;;;-141.97;49.48;47317.28;5071645;28;20592;-82
2023/08/05 00:03:06;;;;;;;10.65;8.60;;;;;;;-141.97;49.96;47319.19;5071926;28;20243;-83
2023/08/05 00:05:32;;;;;;;11.00;8.90;;;;;;;-141.97;50.15;47338.41;5072174;28;20158;-81
2023/08/05 00:07:57;;;;;;;10.65;8.57;;;;;;;-141.97;50.21;47559.44;5070907;28;20641;-82
2023/08/05 00:10:22;;;;;;;9.50;8.30;;;;;;;-141.97;50.26;47309.59;5071702;28;20163;-82
2023/08/05 00:12:48;;;;;;;11.90;8.52;;;;;;;-141.97;50.20;47330.72;5070950;28;20193;-83
2023/08/05 00:15:13;;;;;;;10.05;8.57;;;;;;;-141.97;50.28;47192.34;5071408;28;20700;-82
2023/08/05 00:17:38;;;;;;;10.77;8.68;;;;;;;-141.97;50.28;47348.03;5071256;28;20585;-83
2023/08/05 00:20:05;;;;;;;10.25;8.75;;;;;;;-141.97;50.55;47175.06;5071240;28;20154;-82
2023/08/05 00:22:30;;;;;;;9.50;8.50;;;;;;;-141.97;50.58;47161.59;5071219;28;20174;-85
2023/08/05 00:24:55;;;;;;;10.23;8.65;;;;;;;-141.97;50.40;47311.50;5053068;28;20636;-82
2023/08/05 00:27:21;;;;;;;10.02;8.18;;;;;;;-141.97;51.05;47446.03;5071063;28;20219;-82
2023/08/05 00:29:46;;;;;;;9.60;8.60;;;;;;;-141.97;51.04;47334.56;5071440;28;20215;-82
2023/08/05 00:32:12;;;;;;;10.10;8.95;;;;;;;-141.97;51.78;47246.16;5070971;28;20194;-82
2023/08/05 00:34:37;;;;;;;10.02;8.60;;;;;;;-141.97;51.89;47351.88;5071556;28;20657;-81
2023/08/05 00:37:03;;;;;;;10.73;8.55;;;;;;;-141.97;52.19;47219.25;5071607;28;20243;-82
2023/08/05 00:39:28;;;;;;;9.25;8.35;;;;;;;-141.97;52.64;47488.31;5073929;28;20229;-79
2023/08/05 00:41:54;;;;;;;10.25;8.77;;;;;;;-141.97;52.78;47334.56;5076920;28;20161;-81
2023/08/05 00:44:19;;;;;;;9.50;8.52;;;;;;;-141.97;53.13;47334.56;5070346;28;20161;-82
2023/08/05 00:46:45;;;;;;;11.68;9.23;;;;;;;-141.97;53.21;47190.44;5071075;28;20247;-81
2023/08/05 00:49:11;;;;;;;9.40;8.40;;;;;;;-141.97;53.39;47324.97;5070882;28;20573;-83
2023/08/05 00:51:38;;;;;;;9.70;8.70;;;;;;;-141.97;53.66;47334.56;5070972;28;20221;-83
2023/08/05 00:54:04;;;;;;;10.50;9.40;;;;;;;-141.97;54.23;47326.88;5070715;28;20220;-83
2023/08/05 00:56:30;;;;;;;10.37;8.60;;;;;;;-141.97;54.54;47276.91;5071105;28;20161;-83
2023/08/05 00:58:55;;;;;;;10.50;9.40;;;;;;;-141.97;54.49;47261.53;5070782;28;20613;-82
2023/08/05 01:01:21;;;;;;;12.00;9.23;;;;;;;-141.97;55.02;47570.97;5072653;28;20192;-82
2023/08/05 01:03:47;;;;;;;11.32;8.93;;;;;;;-141.97;54.60;47611.34;5074662;28;20165;-82
2023/08/05 01:06:14;;;;;;;10.30;9.30;;;;;;;-141.97;55.02;47319.19;5074451;28;20165;-84
2023/08/05 01:08:40;;;;;;;10.87;9.10;;;;;;;-141.97;55.67;47403.75;5073552;28;20211;-81
2023/08/05 01:11:05;;;;;;;10.30;9.20;;;;;;;-141.97;55.86;47269.22;5088654;28;20609;-81
2023/08/05 01:13:31;;;;;;;9.77;8.77;;;;;;;-141.97;56.35;47332.66;5073083;28;20204;-82
2023/08/05 01:15:56;;;;;;;10.57;9.07;;;;;;;-141.97;56.87;47407.59;5072954;28;20255;-81
2023/08/05 01:18:24;;;;;;;9.67;8.67;;;;;;;-141.97;57.39;47348.03;5072651;28;20165;-81
2023/08/05 01:20:52;;;;;;;9.63;8.63;;;;;;;-141.97;57.34;47369.16;5072806;28;20171;-82
2023/08/05 01:23:22;;;;;;;10.17;9.07;;;;;;;-141.97;57.14;47353.78;5072840;28;20190;-82
2023/08/05 01:25:48;;;;;;;10.23;9.20;;;;;;;-141.97;57.94;47342.25;5072713;28;20169;-83
2023/08/05 01:28:15;;;;;;;13.70;9.30;;;;;;;-141.97;58.36;47603.66;5073011;28;20165;-82
2023/08/05 01:30:42;;;;;;;12.37;9.37;;;;;;;-141.97;58.64;47353.78;5072919;28;20157;-82
2023/08/05 01:33:08;;;;;;;12.17;9.60;;;;;;;-141.97;58.57;47244.25;5072678;28;20262;-81
2023/08/05 01:35:34;;;;;;;11.43;10.07;;;;;;;-141.97;59.38;47357.63;5072992;28;20161;-81
2023/08/05 01:37:59;;;;;;;10.90;9.77;;;;;;;-141.97;59.68;47369.16;5072295;28;20224;-81
2023/08/05 01:40:28;;;;;;;11.30;10.10;;;;;;;-141.97;60.23;47369.16;5072623;28;20164;-82
2023/08/05 01:42:59;;;;;;;11.20;10.00;;;;;;;-141.97;60.24;47269.22;5072695;28;20627;-82
2023/08/05 01:45:25;;;;;;;13.53;10.53;;;;;;;-141.97;60.74;47367.25;5072716;28;20535;-82
2023/08/05 01:47:50;;;;;;;11.43;10.23;;;;;;;-141.97;60.58;47361.47;5072574;28;20161;-82
2023/08/05 01:50:16;;;;;;;14.10;9.80;;;;;;;-141.97;60.58;47538.28;5072743;28;20658;-82
2023/08/05 01:52:41;;;;;;;11.63;10.23;;;;;;;-141.97;61.42;47373.00;5072860;28;20672;-81
2023/08/05 01:55:06;;;;;;;11.27;9.93;;;;;;;-141.97;62.00;47365.31;5054312;28;20188;-81
2023/08/05 01:57:32;;;;;;;12.70;10.80;;;;;;;-141.97;62.54;47359.56;5087911;28;20165;-81
2023/08/05 01:59:57;;;;;;;11.87;10.67;;;;;;;-141.97;63.04;47382.63;5073158;28;20303;-80
2023/08/05 02:02:23;;;;;;;11.53;10.43;;;;;;;-141.97;63.26;47349.94;5074864;28;20164;-80
2023/08/05 02:04:48;;;;;;;12.47;10.87;;;;;;;-141.97;63.94;47388.38;5075421;28;20199;-81
2023/08/05 02:07:13;;;;;;;12.37;10.40;;;;;;;-141.97;63.92;47365.31;5074934;28;20295;-81
2023/08/05 02:09:39;;;;;;;12.03;10.50;;;;;;;-141.97;64.01;47328.81;5072425;28;20600;-80
2023/08/05 02:12:04;;;;;;;13.77;10.60;;;;;;;-141.97;65.04;47359.56;5071743;28;20191;-82
2023/08/05 02:14:30;;;;;;;13.10;10.93;;;;;;;-141.97;65.50;47365.31;5072358;28;20235;-83
2023/08/05 02:16:55;;;;;;;12.83;11.33;;;;;;;-141.97;65.42;47540.22;5072132;28;20641;-83
2023/08/05 02:19:20;;;;;;;13.87;11.10;;;;;;;-141.97;65.91;47340.34;5072109;28;20164;-83
2023/08/05 02:21:46;;;;;;;13.77;11.20;;;;;;;-141.97;65.92;47380.69;5072261;28;20157;-82
2023/08/05 02:24:11;;;;;;;20.87;11.43;;;;;;;-141.97;66.59;47415.28;5072004;28;20219;-82
2023/08/05 02:26:37;;;;;;;13.10;10.90;;;;;;;-141.97;66.92;47342.25;5053829;28;20173;-81
2023/08/05 02:29:03;;;;;;;12.53;10.90;;;;;;;-141.97;67.29;47376.84;5071903;28;20226;-81
2023/08/05 02:31:28;;;;;;;13.23;11.13;;;;;;;-141.97;67.55;47403.75;5071724;28;20282;-82
2023/08/05 02:33:54;;;;;;;13.33;11.20;;;;;;;-141.97;68.03;47411.44;5072023;28;20192;-82
2023/08/05 02:36:19;;;;;;;13.03;11.20;;;;;;;-141.97;67.90;47422.97;5071816;28;20565;-81
2023/08/05 02:38:45;;;;;;;14.17;11.30;;;;;;;-141.97;68.43;47373.00;5071569;28;20247;-81
2023/08/05 02:41:10;;;;;;;13.23;11.20;;;;;;;-141.97;68.79;47284.59;5067557;28;20442;-81
2023/08/05 02:43:35;;;;;;;13.63;12.13;;;;;;;-141.97;69.72;47411.44;5031965;28;20170;-81
2023/08/05 02:46:01;;;;;;;13.70;11.90;;;;;;;-141.97;69.75;47376.84;5032460;28;20170;-81
2023/08/05 02:48:27;;;;;;;15.17;12.67;;;;;;;-141.97;70.11;47396.06;5039909;28;20166;-81
2023/08/05 02:50:53;;;;;;;14.87;12.47;;;;;;;-141.97;70.62;47392.22;5041522;28;20220;-81
2023/08/05 02:53:19;;;;;;;14.23;12.73;;;;;;;-141.97;71.05;47378.78;5032457;28;20210;-80
2023/08/05 02:55:45;;;;;;;19.37;13.30;;;;;;;-141.97;71.64;47390.31;5031351;28;20177;-81
2023/08/05 02:58:11;;;;;;;16.47;13.40;;;;;;;-141.97;72.60;47421.06;5031751;28;20179;-81
2023/08/05 03:00:36;;;;;;;15.30;13.30;;;;;;;-141.97;72.56;47430.66;5031894;28;20181;-81
2023/08/05 03:03:02;;;;;;;15.30;13.57;;;;;;;-141.97;73.80;47419.13;5032312;28;20162;-79
2023/08/05 03:05:28;;;;;;;16.10;13.13;;;;;;;-141.97;74.05;47384.53;5033877;28;20174;-80
2023/08/05 03:07:53;;;;;;;18.77;13.47;;;;;;;-141.97;74.40;47411.44;5031688;28;20170;-82
2023/08/05 03:10:19;;;;;;;15.57;13.37;;;;;;;-141.97;74.32;47415.28;5031641;28;20169;-81
2023/08/05 03:12:44;;;;;;;17.17;13.57;;;;;;;-141.97;74.50;47613.25;5031181;28;20325;-81
2023/08/05 03:15:09;;;;;;;16.10;14.00;;;;;;;-141.97;74.78;47388.38;5031358;28;20170;-80
2023/08/05 03:17:35;;;;;;;14.17;12.50;;;;;;;-141.97;74.38;47296.13;5031459;28;20537;-80
2023/08/05 03:20:05;;;;;;;15.63;13.90;;;;;;;-141.97;74.87;47426.81;5031048;28;20166;-81
2023/08/05 03:22:31;;;;;;;16.60;14.23;;;;;;;-141.97;75.96;47388.38;5031095;28;20253;-81
2023/08/05 03:24:59;;;;;;;16.70;14.13;;;;;;;-141.97;76.51;47334.56;5031109;28;20169;-81
2023/08/05 03:27:24;;;;;;;19.10;14.37;;;;;;;-141.97;76.83;47501.78;5031793;28;20682;-80
2023/08/05 03:29:49;;;;;;;16.27;14.40;;;;;;;-141.97;77.23;47330.72;5031174;28;20256;-80
2023/08/05 03:32:15;;;;;;;17.33;14.37;;;;;;;-141.97;76.78;47401.84;5046228;28;20202;-80
2023/08/05 03:34:40;;;;;;;18.93;15.03;;;;;;;-141.97;76.75;47374.94;5031190;28;20186;-80
2023/08/05 03:37:05;;;;;;;17.27;14.83;;;;;;;-141.97;77.26;47374.94;5013223;28;20600;-80
2023/08/05 03:39:31;;;;;;;18.07;14.97;;;;;;;-141.97;77.93;47609.41;5030694;28;20232;-81
2023/08/05 03:41:56;;;;;;;21.40;15.33;;;;;;;-141.97;78.13;47407.59;5031199;28;20650;-81
2023/08/05 03:44:22;;;;;;;19.20;14.90;;;;;;;-141.97;77.78;47380.69;5030939;28;20170;-80
2023/08/05 03:46:47;;;;;;;20.47;15.70;;;;;;;-141.97;78.40;47301.91;5030560;28;20537;-80
2023/08/05 03:49:13;;;;;;;19.23;15.27;;;;;;;-141.97;78.75;47330.72;5030516;28;20308;-80
2023/08/05 03:51:38;;;;;;;21.43;15.13;;;;;;;-141.97;77.86;47547.91;5045870;28;20260;-79
2023/08/05 03:54:03;;;;;;;18.37;15.13;;;;;;;-141.97;78.02;47534.44;5030337;28;20340;-82
2023/08/05 03:56:29;;;;;;;21.00;16.13;;;;;;;-141.97;78.30;47407.59;5030198;28;20202;-83
2023/08/05 03:58:55;;;;;;;22.20;17.10;;;;;;;-141.97;78.57;47436.44;5012841;28;20182;-82
2023/08/05 04:01:22;;;;;;;26.07;17.97;;;;;;;-141.97;79.57;47380.69;5030907;28;20191;-83
2023/08/05 04:03:49;;;;;;;26.33;18.40;;;;;;;-141.97;80.73;47353.78;5050483;28;20670;-84
2023/08/05 04:06:15;;;;;;;29.50;19.97;;;;;;;-141.97;81.49;47355.72;5050576;28;20166;-84
2023/08/05 04:08:41;;;;;;;27.47;19.20;;;;;;;-141.97;81.42;47421.06;5050491;28;20180;-83
2023/08/05 04:11:08;;;;;;;30.20;20.57;;;;;;;-141.97;81.98;47576.75;5031875;28;20169;-83
2023/08/05 04:13:34;;;;;;;32.10;20.47;;;;;;;-141.97;81.66;47490.25;5050028;28;20272;-83
2023/08/05 04:16:03;;;;;;;29.67;19.70;;;;;;;-141.97;82.37;47361.47;5050325;28;20196;-83
2023/08/05 04:18:34;;;;;;;37.10;21.33;;;;;;;-141.97;81.79;47357.63;5032375;28;20188;-84
2023/08/05 04:21:00;;;;;;;31.33;20.57;;;;;;;-141.97;81.30;47474.88;5050186;28;20170;-84
2023/08/05 04:23:28;;;;;;;32.83;21.23;;;;;;;-141.97;81.30;47419.13;5050566;28;20551;-84
2023/08/05 04:25:54;;;;;;;32.17;20.90;;;;;;;-141.97;80.65;47584.44;5065465;28;20169;-84
2023/08/05 04:28:19;;;;;;;34.03;22.17;;;;;;;-141.97;80.90;47607.50;5065277;28;20562;-84
2023/08/05 04:30:47;;;;;;;35.67;21.93;;;;;;;-141.97;81.00;47411.44;5049610;28;20582;-84
2023/08/05 04:33:13;;;;;;;33.80;22.03;;;;;;;-141.97;80.88;47415.28;5049987;28;20189;-84
2023/08/05 04:35:38;;;;;;;40.10;23.97;;;;;;;-141.97;80.44;47311.50;5050086;28;20244;-84
2023/08/05 04:38:04;;;;;;;36.70;24.03;;;;;;;-141.97;81.25;47394.16;5053767;28;20643;-84
2023/08/05 04:40:29;;;;;;;43.97;25.50;;;;;;;-141.97;81.46;47180.81;5036116;28;20299;-83
2023/08/05 04:42:54;;;;;;;39.60;25.30;;;;;;;-141.97;82.33;47332.66;5053849;28;20629;-84
2023/08/05 04:45:26;;;;;;;42.97;25.93;;;;;;;-141.97;80.79;47413.38;5053751;28;20287;-87
2023/08/05 04:47:51;;;;;;;41.20;26.50;;;;;;;-141.97;80.45;47453.72;5054339;28;20178;-84
2023/08/05 04:50:17;;;;;;;42.30;27.20;;;;;;;-141.97;80.56;47653.63;5053604;28;20165;-83
2023/08/05 04:52:44;;;;;;;40.87;26.77;;;;;;;-141.97;79.39;47432.59;5053949;28;20723;-82
2023/08/05 04:55:10;;;;;;;41.90;25.63;;;;;;;-141.97;78.36;47292.28;5053393;28;20653;-83
2023/08/05 04:57:50;;;;;;;39.07;25.87;;;;;;;-141.97;78.13;47472.94;5053862;28;20215;-84
2023/08/05 05:00:18;;;;;;;38.20;25.57;;;;;;;-141.97;78.22;47405.69;5067529;28;20167;-85
2023/08/05 05:02:44;;;;;;;38.70;25.30;;;;;;;-141.97;78.15;47557.53;5072317;28;20197;-82
2023/08/05 05:05:10;;;;;;;36.97;25.87;;;;;;;-141.97;78.63;47299.97;5073884;28;20178;-82
2023/08/05 05:07:35;;;;;;;37.57;25.43;;;;;;;-141.97;77.81;47225.03;5072215;28;20276;-83
2023/08/05 05:10:01;;;;;;;36.13;25.03;;;;;;;-141.97;78.63;47313.44;5057016;28;20170;-83
2023/08/05 05:12:26;;;;;;;38.07;24.70;;;;;;;-141.97;78.94;47292.28;5053562;28;20193;-82
2023/08/05 05:14:52;;;;;;;34.33;24.23;;;;;;;-141.97;79.02;47434.50;5053750;28;20180;-83
2023/08/05 05:17:17;;;;;;;35.27;25.60;;;;;;;-141.97;79.25;47453.72;5054062;28;20248;-83
2023/08/05 05:19:43;;;;;;;36.17;24.90;;;;;;;-141.97;79.16;47422.97;5053300;28;20162;-83
2023/08/05 05:22:10;;;;;;;37.60;24.43;;;;;;;-141.97;78.45;47294.22;5034875;28;20161;-84
2023/08/05 05:24:35;;;;;;;33.33;23.27;;;;;;;-141.97;78.15;47299.97;5056768;28;20196;-86
2023/08/05 05:27:01;;;;;;;38.27;24.27;;;;;;;-141.97;78.33;47421.06;5064795;28;20165;-80
2023/08/05 05:29:28;;;;;;;34.00;24.57;;;;;;;-141.97;77.63;47415.28;5047733;28;20215;-84
2023/08/05 05:31:54;;;;;;;34.43;24.43;;;;;;;-141.97;76.83;47388.38;5052490;28;20628;-85
2023/08/05 05:34:19;;;;;;;35.03;25.07;;;;;;;-141.97;76.05;47440.28;5052666;28;20189;-83
2023/08/05 05:36:45;;;;;;;36.70;24.93;;;;;;;-141.97;75.25;47415.28;5052215;28;20543;-84
2023/08/05 05:39:10;;;;;;;35.77;24.57;;;;;;;-141.97;74.43;47398.00;5052566;28;20235;-84
2023/08/05 05:41:36;;;;;;;35.73;24.47;;;;;;;-141.97;73.04;47355.72;5055346;28;20162;-84
2023/08/05 05:44:04;;;;;;;36.50;24.97;;;;;;;-141.97;72.14;47407.59;5057577;28;20257;-81
2023/08/05 05:46:32;;;;;;;35.30;25.73;;;;;;;-141.97;74.45;47419.13;5062583;28;20158;-83
2023/08/05 05:48:57;;;;;;;33.90;25.50;;;;;;;-141.97;74.03;47411.44;5059043;28;20181;-83
2023/08/05 05:51:22;;;;;;;36.00;24.73;;;;;;;-141.97;73.86;47409.53;5035357;28;20224;-83
2023/08/05 05:53:49;;;;;;;34.03;25.20;;;;;;;-141.97;73.19;47415.28;5052933;28;20196;-84
2023/08/05 05:56:14;;;;;;;34.00;24.67;;;;;;;-141.97;72.43;47409.53;5052558;28;20158;-84
2023/08/05 05:58:40;;;;;;;29.87;23.77;;;;;;;-141.97;72.15;47421.06;5044760;28;20158;-84
2023/08/05 06:01:05;;;;;;;30.00;23.73;;;;;;;-141.97;71.13;47434.50;5044155;28;20688;-84
2023/08/05 06:03:33;;;;;;;32.20;23.90;;;;;;;-141.97;70.74;47369.16;5052390;28;20169;-84
2023/08/05 06:05:59;;;;;;;28.38;22.65;;;;;;;-141.97;69.75;47417.22;5072280;28;20157;-83
2023/08/05 06:08:24;;;;;;;30.77;24.35;;;;;;;-141.97;69.78;47398.00;5088195;28;20584;-83
2023/08/05 06:10:51;;;;;;;33.20;25.15;;;;;;;-141.97;71.15;47084.72;5072333;28;20184;-83
2023/08/05 06:13:16;;;;;;;35.47;25.97;;;;;;;-141.97;70.46;47422.97;5071590;28;20205;-81
2023/08/05 06:15:42;;;;;;;33.58;26.13;;;;;;;-141.97;70.77;47390.31;5071316;28;20168;-80
2023/08/05 06:18:08;;;;;;;38.25;29.55;;;;;;;-141.97;70.45;47413.38;5071862;28;20196;-81
2023/08/05 06:20:34;;;;;;;33.93;26.00;;;;;;;-141.97;70.15;47380.69;5071591;28;20244;-80
2023/08/05 06:23:00;;;;;;;33.50;25.00;;;;;;;-141.97;70.20;47323.03;5071083;28;20245;-81
2023/08/05 06:25:25;;;;;;;29.33;23.00;;;;;;;-141.97;69.12;47388.38;5051377;28;20170;-81
2023/08/05 06:27:50;;;;;;;29.13;22.73;;;;;;;-141.97;69.08;47388.38;5034215;28;20185;-80
2023/08/05 06:30:16;;;;;;;26.92;21.23;;;;;;;-141.97;66.81;47336.50;5054370;28;20167;-81
2023/08/05 06:32:41;;;;;;;24.30;20.80;;;;;;;-141.97;66.42;47426.81;5051702;28;20220;-83
2023/08/05 06:35:07;;;;;;;29.40;21.75;;;;;;;-141.97;66.10;47386.47;5051968;28;20202;-80
2023/08/05 06:37:32;;;;;;;24.13;19.05;;;;;;;-141.97;66.30;47384.53;5052280;28;20310;-80
2023/08/05 06:39:57;;;;;;;23.08;17.65;;;;;;;-141.97;66.20;47384.53;5051733;28;20195;-80
2023/08/05 06:42:24;;;;;;;21.20;17.83;;;;;;;-141.97;65.99;47451.81;5051684;28;20570;-81
2023/08/05 06:44:49;;;;;;;23.48;18.65;;;;;;;-141.97;65.79;47413.38;5052469;28;20175;-81
2023/08/05 06:47:15;;;;;;;22.27;19.08;;;;;;;-141.97;65.61;47380.69;5051514;28;20233;-81
2023/08/05 06:49:40;;;;;;;21.85;18.70;;;;;;;-141.97;65.87;47403.75;5051522;28;20167;-81
2023/08/05 06:52:06;;;;;;;20.30;16.85;;;;;;;-141.97;64.58;47369.16;5051100;28;20591;-81
2023/08/05 06:54:32;;;;;;;22.27;17.45;;;;;;;-141.97;64.87;47399.91;5051248;28;20179;-81
2023/08/05 06:56:57;;;;;;;20.00;17.13;;;;;;;-141.97;64.60;47384.53;5051171;28;20160;-81
2023/08/05 06:59:23;;;;;;;19.83;16.17;;;;;;;-141.97;63.92;47376.84;5050240;28;20614;-81
2023/08/05 07:01:49;;;;;;;17.52;14.80;;;;;;;-141.97;62.20;47369.16;5050798;28;20168;-81
2023/08/05 07:04:14;;;;;;;18.05;14.20;;;;;;;-141.97;60.18;47380.69;5051238;28;20192;-82
2023/08/05 07:06:40;;;;;;;18.05;14.15;;;;;;;-141.97;60.50;47359.56;5051162;28;20165;-80
2023/08/05 07:09:06;;;;;;;15.07;13.48;;;;;;;-141.97;60.16;47374.94;5051152;28;20173;-81
2023/08/05 07:11:31;;;;;;;20.65;14.63;;;;;;;-141.97;61.06;47344.19;5051177;28;20181;-81
2023/08/05 07:13:57;;;;;;;15.25;13.65;;;;;;;-141.97;60.67;47303.81;5051185;28;20326;-81
2023/08/05 07:16:22;;;;;;;15.45;13.73;;;;;;;-141.97;60.10;47365.31;5031540;28;20671;-79
2023/08/05 07:18:47;;;;;;;14.90;13.10;;;;;;;-141.97;58.50;47371.09;5030435;28;20174;-80
2023/08/05 07:21:15;;;;;;;17.20;13.35;;;;;;;-141.97;58.10;47315.34;5031252;28;20165;-81
2023/08/05 07:23:40;;;;;;;14.70;12.85;;;;;;;-141.97;57.63;47376.84;5030632;28;20162;-80
2023/08/05 07:26:06;;;;;;;14.88;12.98;;;;;;;-141.97;58.12;47374.94;5030724;28;20823;-81
2023/08/05 07:28:31;;;;;;;15.13;12.30;;;;;;;-141.97;57.98;47330.72;5030618;28;20185;-79
2023/08/05 07:31:04;;;;;;;19.05;12.32;;;;;;;-141.97;57.04;47342.25;5030770;28;20180;-81
2023/08/05 07:33:30;;;;;;;18.40;13.18;;;;;;;-141.97;55.80;47324.97;5030241;28;20200;-81
2023/08/05 07:35:56;;;;;;;21.92;13.82;;;;;;;-141.97;55.58;47349.94;5030614;28;20202;-80
2023/08/05 07:38:25;;;;;;;16.33;14.57;;;;;;;-141.97;56.30;47357.63;5012567;28;20306;-80
2023/08/05 07:40:54;;;;;;;17.00;14.45;;;;;;;-141.97;55.15;47615.19;5030342;28;20169;-80
2023/08/05 07:43:23;;;;;;;16.90;15.10;;;;;;;-141.97;54.17;47365.31;5045222;28;20178;-80
2023/08/05 07:45:49;;;;;;;17.10;15.02;;;;;;;-141.97;52.80;47301.91;5029983;28;20586;-81
2023/08/05 07:48:15;;;;;;;18.08;15.60;;;;;;;-141.97;52.54;47353.78;5031358;28;20173;-79
2023/08/05 07:50:40;;;;;;;16.42;14.70;;;;;;;-141.97;53.18;47369.16;5037054;28;20150;-78
2023/08/05 07:53:06;;;;;;;18.55;15.82;;;;;;;-141.97;53.42;47332.66;5050458;28;20201;-78
2023/08/05 07:55:33;;;;;;;19.50;14.90;;;;;;;-141.97;52.37;47334.56;5032387;28;20189;-79
2023/08/05 07:57:59;;;;;;;19.90;15.90;;;;;;;-141.97;53.88;47334.56;5030826;28;20260;-80
2023/08/05 08:00:26;;;;;;;17.23;15.40;;;;;;;-141.97;54.51;47363.41;5030310;28;20202;-80
2023/08/05 08:02:52;;;;;;;16.92;14.32;;;;;;;-141.97;54.60;47299.97;5030209;28;20160;-80
2023/08/05 08:05:17;;;;;;;15.95;13.55;;;;;;;-141.97;54.10;47324.97;5035976;28;20169;-81
2023/08/05 08:07:46;;;;;;;14.85;13.00;;;;;;;-141.97;52.95;47367.25;5030688;28;20164;-81
2023/08/05 08:10:12;;;;;;;13.80;12.23;;;;;;;-141.97;51.48;47334.56;5030164;28;20190;-81
2023/08/05 08:12:38;;;;;;;14.73;11.98;;;;;;;-141.97;50.16;47311.50;5029624;28;20534;-81
2023/08/05 08:15:03;;;;;;;13.45;11.90;;;;;;;-141.97;49.28;47303.81;5030006;28;20168;-81
2023/08/05 08:17:29;;;;;;;15.48;12.30;;;;;;;-141.97;48.13;47340.34;5030265;28;20167;-79
2023/08/05 08:19:54;;;;;;;13.60;12.10;;;;;;;-141.97;47.67;47311.50;5030902;28;20227;-80
2023/08/05 08:22:20;;;;;;;15.20;12.95;;;;;;;-141.97;48.15;47292.28;5030550;28;20187;-81
2023/08/05 08:24:45;;;;;;;13.00;11.52;;;;;;;-141.97;46.62;47311.50;5029623;28;20245;-79
2023/08/05 08:27:10;;;;;;;13.40;11.48;;;;;;;-141.97;46.84;47307.66;5030125;28;20165;-82
2023/08/05 08:29:39;;;;;;;13.30;11.65;;;;;;;-141.97;46.88;47299.97;5029145;28;20204;-81
2023/08/05 08:32:04;;;;;;;14.38;12.52;;;;;;;-141.97;48.24;47305.75;5029543;28;20193;-80
2023/08/05 08:34:30;;;;;;;15.35;13.00;;;;;;;-141.97;49.08;47303.81;5029302;28;20179;-81
2023/08/05 08:36:55;;;;;;;14.68;12.57;;;;;;;-141.97;48.44;47313.44;5030296;28;20244;-82
2023/08/05 08:39:21;;;;;;;15.55;12.88;;;;;;;-141.97;48.00;47307.66;5029947;28;20243;-80
2023/08/05 08:41:48;;;;;;;14.65;12.20;;;;;;;-141.97;46.96;47307.66;5029366;28;20176;-81
2023/08/05 08:44:16;;;;;;;14.15;12.02;;;;;;;-141.97;47.20;47292.28;5029585;28;20176;-80
2023/08/05 08:46:43;;;;;;;14.88;11.88;;;;;;;-141.97;46.13;47299.97;5029422;28;20555;-80
2023/08/05 08:49:09;;;;;;;13.20;11.90;;;;;;;-141.97;46.03;47286.53;5029717;28;20171;-80
2023/08/05 08:51:37;;;;;;;13.68;11.57;;;;;;;-141.97;45.23;47223.09;5029375;28;20170;-81
2023/08/05 08:54:03;;;;;;;15.18;11.55;;;;;;;-141.97;45.29;47276.91;5029465;28;20162;-81
2023/08/05 08:56:30;;;;;;;11.55;10.35;;;;;;;-141.97;44.21;47253.84;5029399;28;20201;-81
2023/08/05 08:58:55;;;;;;;11.52;10.40;;;;;;;-141.97;45.17;47284.59;5029910;28;20182;-81
2023/08/05 09:01:21;;;;;;;12.40;8.80;;;;;;;-141.97;44.53;47296.13;5029829;28;20154;-81
2023/08/05 09:03:52;;;;;;;11.40;9.40;;;;;;;-141.97;44.81;47259.63;5029591;28;20165;-81
2023/08/05 09:06:22;;;;;;;11.50;10.20;;;;;;;-141.97;44.77;47246.16;5029187;28;20248;-81
2023/08/05 09:08:50;;;;;;;11.32;10.18;;;;;;;-141.97;44.70;47284.59;5029587;28;20630;-81
2023/08/05 09:11:16;;;;;;;11.07;9.50;;;;;;;-141.97;43.40;47301.91;5029401;28;20653;-81
2023/08/05 09:13:42;;;;;;;10.18;9.10;;;;;;;-141.97;42.89;47267.31;5029890;28;20186;-80
2023/08/05 09:16:12;;;;;;;11.55;9.50;;;;;;;-141.97;43.17;47296.13;5029780;28;20165;-80
2023/08/05 09:18:51;;;;;;;12.00;9.57;;;;;;;-141.97;43.03;47248.09;5032821;28;20181;-80
2023/08/05 09:21:25;;;;;;;10.63;9.23;;;;;;;-141.97;42.88;47275.00;5031385;28;20315;-81
2023/08/05 09:23:53;;;;;;;11.48;9.90;;;;;;;-141.97;41.93;47284.59;5033700;28;20622;-82
2023/08/05 09:26:29;;;;;;;11.00;9.68;;;;;;;-141.97;42.42;47213.50;5035569;28;20206;-82
2023/08/05 09:28:56;;;;;;;10.90;9.80;;;;;;;-141.97;41.88;47267.31;5039872;28;20155;-82
2023/08/05 09:31:22;;;;;;;11.50;10.30;;;;;;;-141.97;42.10;47265.38;5027146;28;20223;-81
2023/08/05 09:33:47;;;;;;;12.50;10.02;;;;;;;-141.97;42.87;47288.44;5049713;28;20202;-81
2023/08/05 09:36:14;;;;;;;12.10;10.48;;;;;;;-141.97;42.57;47265.38;5034147;28;20165;-81
2023/08/05 09:38:40;;;;;;;11.23;9.95;;;;;;;-141.97;41.88;47255.78;5014625;28;20550;-80
2023/08/05 09:41:07;;;;;;;11.65;10.35;;;;;;;-141.97;40.46;47269.22;5047744;28;20193;-82
2023/08/05 09:43:35;;;;;;;11.00;9.70;;;;;;;-141.97;40.98;47294.22;5033019;28;20162;-81
2023/08/05 09:46:05;;;;;;;12.45;9.80;;;;;;;-141.97;40.03;47246.16;5032244;28;20246;-82
2023/08/05 09:48:41;;;;;;;11.10;9.88;;;;;;;-141.97;40.14;47265.38;5032598;28;20748;-82
2023/08/05 09:51:06;;;;;;;11.52;10.27;;;;;;;-141.97;39.42;47240.41;5038167;28;20162;-81
2023/08/05 09:53:35;;;;;;;11.95;10.75;;;;;;;-141.97;38.38;47255.78;5049064;28;20255;-81
2023/08/05 09:56:01;;;;;;;13.27;9.57;;;;;;;-141.97;39.06;47261.53;5037228;28;20193;-81
2023/08/05 09:58:32;;;;;;;10.13;9.23;;;;;;;-141.97;38.87;47230.78;5056953;28;20201;-81
2023/08/05 10:00:58;;;;;;;11.63;10.00;;;;;;;-141.97;39.16;47200.03;5046116;28;20150;-81
2023/08/05 10:03:26;;;;;;;10.55;9.45;;;;;;;-141.97;39.30;47530.59;5026304;28;20166;-85
2023/08/05 10:05:54;;;;;;;10.10;9.10;;;;;;;-141.97;38.93;47246.16;5035670;28;20245;-80
2023/08/05 10:08:21;;;;;;;9.52;8.63;;;;;;;-141.97;39.13;47240.41;5032313;28;20158;-80
2023/08/05 10:10:47;;;;;;;9.68;8.68;;;;;;;-141.97;38.70;47234.63;5032704;28;20173;-83
2023/08/05 10:13:20;;;;;;;11.10;8.20;;;;;;;-141.97;38.72;47240.41;5032663;28;20696;-82
2023/08/05 10:15:51;;;;;;;10.63;8.48;;;;;;;-141.97;37.31;47196.19;5033940;28;20193;-79
2023/08/05 10:18:17;;;;;;;9.38;7.63;;;;;;;-141.97;38.00;47242.31;5038054;28;20266;-80
2023/08/05 10:20:48;;;;;;;8.93;8.00;;;;;;;-141.97;38.24;47280.75;5032700;28;20224;-81
2023/08/05 10:23:13;;;;;;;8.82;7.50;;;;;;;-141.97;37.82;47248.09;5032021;28;20182;-81
2023/08/05 10:25:44;;;;;;;7.97;6.95;;;;;;;-141.97;38.05;47257.69;5032493;28;20201;-81
2023/08/05 10:28:38;;;;;;;8.02;7.22;;;;;;;-141.97;37.60;47236.56;5034468;28;20234;-82
2023/08/05 10:31:05;;;;;;;9.15;7.00;;;;;;;-141.97;37.88;47246.16;5032166;28;20188;-81
2023/08/05 10:33:30;;;;;;;9.52;6.97;;;;;;;-141.97;38.03;47228.88;5032325;28;20248;-82
2023/08/05 10:36:07;;;;;;;8.63;7.43;;;;;;;-141.97;37.25;47236.56;5034595;28;20162;-81
2023/08/05 10:38:42;;;;;;;9.13;7.43;;;;;;;-141.97;37.69;47236.56;5032481;28;20603;-82
2023/08/05 10:41:10;;;;;;;8.82;6.90;;;;;;;-141.97;37.37;47228.88;5034584;28;20206;-82
2023/08/05 10:43:41;;;;;;;9.88;6.63;;;;;;;-141.97;38.10;47284.59;5033140;28;20180;-83
2023/08/05 10:46:06;;;;;;;9.13;6.78;;;;;;;-141.97;37.62;47230.78;5033298;28;20226;-82
2023/08/05 10:48:42;;;;;;;8.73;6.95;;;;;;;-141.97;37.14;47236.56;5032052;28;20193;-81
2023/08/05 10:51:08;;;;;;;8.15;6.47;;;;;;;-141.97;37.34;47173.13;5032110;28;20170;-81
2023/08/05 10:53:35;;;;;;;7.05;6.30;;;;;;;-141.97;37.45;47230.78;5032424;28;20190;-82
2023/08/05 10:56:00;;;;;;;13.98;6.78;;;;;;;-141.97;37.44;47271.16;5032936;28;20216;-82
2023/08/05 10:58:34;;;;;;;7.60;6.80;;;;;;;-141.97;37.28;47163.53;5015649;28;20300;-81
2023/08/05 11:01:02;;;;;;;8.05;6.85;;;;;;;-141.97;37.68;47240.41;5015280;28;20173;-81